createdAt,value
2023-02-11T00:02:08.380Z,-0.07
2023-02-11T00:04:36.398Z,-0.05
2023-02-11T00:07:04.345Z,-0.03
2023-02-11T00:09:37.926Z,-0.01
2023-02-11T00:12:06.134Z,-0.01
2023-02-11T00:14:33.962Z,0.01
2023-02-11T00:17:02.369Z,0.02
2023-02-11T00:19:30.711Z,0.02
2023-02-11T00:21:59.004Z,0.02
2023-02-11T00:24:26.956Z,0.01
2023-02-11T00:26:54.829Z,-0.00
2023-02-11T00:29:23.327Z,-0.01
2023-02-11T00:31:51.376Z,-0.01
2023-02-11T00:34:19.360Z,-0.01
2023-02-11T00:36:47.205Z,-0.02
2023-02-11T00:39:16.060Z,-0.02
2023-02-11T00:41:44.909Z,-0.01
2023-02-11T00:44:14.044Z,-0.01
2023-02-11T00:46:42.082Z,-0.01
2023-02-11T00:49:11.596Z,0.01
2023-02-11T00:51:39.857Z,0.03
2023-02-11T00:54:08.143Z,0.05
2023-02-11T00:56:36.492Z,0.07
2023-02-11T00:59:04.544Z,0.08
2023-02-11T01:01:33.434Z,0.10
2023-02-11T01:04:01.990Z,0.11
2023-02-11T01:06:29.980Z,0.12
2023-02-11T01:08:59.233Z,0.13
2023-02-11T01:11:27.798Z,0.15
2023-02-11T01:13:55.692Z,0.17
2023-02-11T01:16:23.992Z,0.18
2023-02-11T01:18:53.474Z,0.20
2023-02-11T01:21:21.479Z,0.21
2023-02-11T01:23:52.442Z,0.23
2023-02-11T01:26:20.278Z,0.25
2023-02-11T01:28:48.172Z,0.26
2023-02-11T01:31:16.167Z,0.26
2023-02-11T01:33:44.155Z,0.27
2023-02-11T01:36:12.812Z,0.27
2023-02-11T01:38:41.358Z,0.28
2023-02-11T01:41:10.957Z,0.29
2023-02-11T01:43:42.134Z,0.30
2023-02-11T01:46:28.655Z,0.31
2023-02-11T01:49:00.316Z,0.31
2023-02-11T01:51:35.367Z,0.30
2023-02-11T01:54:23.014Z,0.29
2023-02-11T01:57:12.160Z,0.27
2023-02-11T02:00:06.560Z,0.26
2023-02-11T02:02:52.797Z,0.26
2023-02-11T02:05:42.750Z,0.27
2023-02-11T02:08:18.386Z,0.24
2023-02-11T02:10:48.007Z,0.22
2023-02-11T02:13:18.318Z,0.21
2023-02-11T02:15:58.770Z,0.23
2023-02-11T02:18:45.475Z,0.24
2023-02-11T02:21:45.531Z,0.25
2023-02-11T02:24:35.152Z,0.26
2023-02-11T02:27:15.326Z,0.25
2023-02-11T02:30:22.103Z,0.25
2023-02-11T02:33:22.462Z,0.24
2023-02-11T02:35:57.897Z,0.21
2023-02-11T02:38:35.474Z,0.17
2023-02-11T02:41:04.967Z,0.12
2023-02-11T02:43:33.145Z,0.07
2023-02-11T02:46:16.974Z,0.01
2023-02-11T02:48:45.098Z,-0.06
2023-02-11T02:51:36.276Z,-0.12
2023-02-11T02:54:38.661Z,-0.20
2023-02-11T02:57:34.839Z,-0.30
2023-02-11T03:00:26.548Z,-0.37
2023-02-11T03:03:03.347Z,-0.44
2023-02-11T03:05:58.770Z,-0.49
2023-02-11T03:08:33.970Z,-0.54
2023-02-11T03:11:01.941Z,-0.58
2023-02-11T03:13:33.766Z,-0.61
2023-02-11T03:16:15.900Z,-0.65
2023-02-11T03:18:46.337Z,-0.68
2023-02-11T03:21:14.314Z,-0.70
2023-02-11T03:23:51.140Z,-0.72
2023-02-11T03:26:30.321Z,-0.73
2023-02-11T03:29:17.131Z,-0.73
2023-02-11T03:31:49.757Z,-0.71
2023-02-11T03:34:36.373Z,-0.71
2023-02-11T03:37:08.083Z,-0.70
2023-02-11T03:39:38.418Z,-0.70
2023-02-11T03:42:06.967Z,-0.69
2023-02-11T03:44:37.867Z,-0.69
2023-02-11T03:47:06.010Z,-0.68
2023-02-11T03:49:34.313Z,-0.67
2023-02-11T03:52:03.880Z,-0.67
2023-02-11T03:54:32.527Z,-0.67
2023-02-11T03:57:01.157Z,-0.71
2023-02-11T03:59:29.438Z,-0.75
2023-02-11T04:01:59.638Z,-0.77
2023-02-11T04:04:27.565Z,-0.80
2023-02-11T04:06:55.777Z,-0.81
2023-02-11T04:09:23.659Z,-0.83
2023-02-11T04:11:51.764Z,-0.85
2023-02-11T04:14:19.703Z,-0.87
2023-02-11T04:16:48.073Z,-0.89
2023-02-11T04:19:16.777Z,-0.89
2023-02-11T04:21:44.731Z,-0.89
2023-02-11T04:24:12.738Z,-0.88
2023-02-11T04:26:41.080Z,-0.86
2023-02-11T04:29:09.984Z,-0.85
2023-02-11T04:31:37.932Z,-0.86
2023-02-11T04:34:05.892Z,-0.90
2023-02-11T04:36:34.868Z,-0.93
2023-02-11T04:39:02.784Z,-0.95
2023-02-11T04:41:31.108Z,-0.94
2023-02-11T04:43:59.022Z,-0.94
2023-02-11T04:46:29.340Z,-0.92
2023-02-11T04:48:57.851Z,-0.91
2023-02-11T04:51:25.782Z,-0.90
2023-02-11T04:53:56.620Z,-0.90
2023-02-11T04:56:24.635Z,-0.90
2023-02-11T04:58:52.512Z,-0.92
2023-02-11T05:01:20.645Z,-0.93
2023-02-11T05:03:48.615Z,-0.96
2023-02-11T05:06:17.059Z,-0.97
2023-02-11T05:08:44.972Z,-0.98
2023-02-11T05:11:23.296Z,-1.01
2023-02-11T05:13:51.465Z,-1.04
2023-02-11T05:16:20.720Z,-1.07
2023-02-11T05:18:52.468Z,-1.12
2023-02-11T05:21:20.563Z,-1.14
2023-02-11T05:23:48.603Z,-1.19
2023-02-11T05:26:16.690Z,-1.24
2023-02-11T05:28:45.091Z,-1.29
2023-02-11T05:31:14.935Z,-1.33
2023-02-11T05:33:43.306Z,-1.37
2023-02-11T05:36:11.969Z,-1.40
2023-02-11T05:38:40.022Z,-1.42
2023-02-11T05:41:07.884Z,-1.44
2023-02-11T05:43:36.827Z,-1.44
2023-02-11T05:46:05.226Z,-1.43
2023-02-11T05:48:34.044Z,-1.42
2023-02-11T05:51:03.619Z,-1.40
2023-02-11T05:53:31.625Z,-1.40
2023-02-11T05:55:59.834Z,-1.37
2023-02-11T05:58:28.160Z,-1.35
2023-02-11T06:00:56.445Z,-1.31
2023-02-11T06:03:24.890Z,-1.30
2023-02-11T06:05:53.285Z,-1.26
2023-02-11T06:08:22.853Z,-1.24
2023-02-11T06:10:54.030Z,-1.24
2023-02-11T06:13:21.951Z,-1.19
2023-02-11T06:16:00.148Z,-1.13
2023-02-11T06:18:29.557Z,-1.11
2023-02-11T06:20:57.550Z,-1.10
2023-02-11T06:23:30.330Z,-1.07
2023-02-11T06:26:02.312Z,-1.02
2023-02-11T06:28:33.352Z,-0.93
2023-02-11T06:31:06.772Z,-0.82
2023-02-11T06:33:35.550Z,-0.68
2023-02-11T06:36:04.213Z,-0.54
2023-02-11T06:38:33.176Z,-0.39
2023-02-11T06:41:01.253Z,-0.25
2023-02-11T06:43:29.376Z,-0.10
2023-02-11T06:45:57.311Z,0.05
2023-02-11T06:48:25.264Z,0.22
2023-02-11T06:50:53.174Z,0.39
2023-02-11T06:53:21.515Z,0.55
2023-02-11T06:55:49.536Z,0.69
2023-02-11T06:58:18.333Z,0.80
2023-02-11T07:00:46.219Z,0.89
2023-02-11T07:03:14.145Z,0.94
2023-02-11T07:05:43.137Z,1.00
2023-02-11T07:08:11.130Z,1.06
2023-02-11T07:10:42.232Z,1.15
2023-02-11T07:13:10.182Z,1.24
2023-02-11T07:15:38.510Z,1.29
2023-02-11T07:18:06.822Z,1.34
2023-02-11T07:20:37.314Z,1.39
2023-02-11T07:23:05.351Z,1.40
2023-02-11T07:25:33.276Z,1.43
2023-02-11T07:28:05.290Z,1.46
2023-02-11T07:30:34.167Z,1.47
2023-02-11T07:33:02.085Z,1.48
2023-02-11T07:35:30.195Z,1.47
2023-02-11T07:37:58.420Z,1.47
2023-02-11T07:40:26.558Z,1.48
2023-02-11T07:42:54.706Z,1.51
2023-02-11T07:45:25.365Z,1.54
2023-02-11T07:47:53.834Z,1.55
2023-02-11T07:50:21.886Z,1.51
2023-02-11T07:52:49.866Z,1.51
2023-02-11T07:55:18.260Z,1.54
2023-02-11T07:57:46.282Z,1.51
2023-02-11T08:00:15.002Z,1.48
2023-02-11T08:02:42.892Z,1.46
2023-02-11T08:05:11.248Z,1.47
2023-02-11T08:07:39.622Z,1.47
2023-02-11T08:10:08.005Z,1.51
2023-02-11T08:12:36.566Z,1.53
2023-02-11T08:15:04.760Z,1.57
2023-02-11T08:17:35.490Z,1.60
2023-02-11T08:20:04.754Z,1.64
2023-02-11T08:22:33.997Z,1.69
2023-02-11T08:25:01.982Z,1.76
2023-02-11T08:27:32.036Z,1.84
2023-02-11T08:30:00.439Z,1.90
2023-02-11T08:32:28.734Z,1.97
2023-02-11T08:34:56.971Z,2.01
2023-02-11T08:37:24.905Z,2.06
2023-02-11T08:39:52.848Z,2.11
2023-02-11T08:42:20.831Z,2.14
2023-02-11T08:44:48.736Z,2.15
2023-02-11T08:47:16.852Z,2.18
2023-02-11T08:49:45.202Z,2.20
2023-02-11T08:52:13.361Z,2.23
2023-02-11T08:54:41.587Z,2.25
2023-02-11T08:57:09.543Z,2.22
2023-02-11T08:59:40.004Z,2.19
2023-02-11T09:02:13.299Z,2.20
2023-02-11T09:04:41.228Z,2.25
2023-02-11T09:07:13.501Z,2.33
2023-02-11T09:09:42.199Z,2.42
2023-02-11T09:12:10.176Z,2.46
2023-02-11T09:14:39.246Z,2.52
2023-02-11T09:17:07.725Z,2.53
2023-02-11T09:19:36.279Z,2.52
2023-02-11T09:22:04.680Z,2.50
2023-02-11T09:24:32.821Z,2.46
2023-02-11T09:27:01.209Z,2.41
2023-02-11T09:29:29.220Z,2.40
2023-02-11T09:31:57.225Z,2.39
2023-02-11T09:34:25.072Z,2.39
2023-02-11T09:36:53.082Z,2.38
2023-02-11T09:39:20.985Z,2.38
2023-02-11T09:41:59.714Z,2.40
2023-02-11T09:44:30.340Z,2.42
2023-02-11T09:47:20.955Z,2.48
2023-02-11T09:49:51.341Z,2.55
2023-02-11T09:52:37.933Z,2.60
2023-02-11T09:55:15.274Z,2.67
2023-02-11T09:57:43.557Z,2.68
2023-02-11T10:00:23.472Z,2.68
2023-02-11T10:03:01.175Z,2.70
2023-02-11T10:05:58.273Z,2.73
2023-02-11T10:08:42.901Z,2.67
2023-02-11T10:11:56.534Z,2.57
2023-02-11T10:14:28.545Z,2.49
2023-02-11T10:17:34.423Z,2.44
2023-02-11T10:20:23.815Z,2.44
2023-02-11T10:22:57.300Z,2.43
2023-02-11T10:25:39.601Z,2.46
2023-02-11T10:28:32.234Z,2.45
2023-02-11T10:31:13.771Z,2.49
2023-02-11T10:33:58.836Z,2.57
2023-02-11T10:36:33.429Z,2.65
2023-02-11T10:39:11.876Z,2.73
2023-02-11T10:41:44.760Z,2.78
2023-02-11T10:44:28.238Z,2.83
2023-02-11T10:46:56.420Z,2.82
2023-02-11T10:49:54.099Z,2.79
2023-02-11T10:52:27.078Z,2.83
2023-02-11T10:55:01.440Z,2.84
2023-02-11T10:57:33.907Z,2.81
2023-02-11T11:00:08.608Z,2.79
2023-02-11T11:02:38.753Z,2.80
2023-02-11T11:05:16.352Z,2.78
2023-02-11T11:09:30.816Z,2.87
2023-02-11T11:11:58.634Z,2.89
2023-02-11T11:14:29.116Z,2.91
2023-02-11T11:16:57.263Z,2.93
2023-02-11T11:19:26.038Z,2.90
2023-02-11T11:21:54.938Z,2.91
2023-02-11T11:24:46.823Z,2.93
2023-02-11T11:27:19.671Z,2.94
2023-02-11T11:29:50.020Z,2.98
2023-02-11T11:32:26.233Z,2.96
2023-02-11T11:34:55.935Z,2.92
2023-02-11T11:37:27.024Z,2.90
2023-02-11T11:40:25.270Z,2.88
2023-02-11T11:43:23.037Z,2.86
2023-02-11T11:45:58.809Z,2.88
2023-02-11T11:48:32.958Z,2.90
2023-02-11T11:51:02.992Z,2.93
2023-02-11T11:54:00.493Z,2.95
2023-02-11T11:56:30.740Z,2.90
2023-02-11T11:59:00.935Z,2.89
2023-02-11T12:01:47.989Z,2.87
2023-02-11T12:04:37.908Z,2.88
2023-02-11T12:07:15.217Z,2.98
2023-02-11T12:10:04.764Z,3.12
2023-02-11T12:13:05.489Z,3.27
2023-02-11T12:15:58.784Z,3.41
2023-02-11T12:18:47.627Z,3.49
2023-02-11T12:21:39.058Z,3.49
2023-02-11T12:24:31.929Z,3.45
2023-02-11T12:27:27.127Z,3.46
2023-02-11T12:30:16.531Z,3.46
2023-02-11T12:33:04.891Z,3.44
2023-02-11T12:36:04.026Z,3.40
2023-02-11T12:38:43.094Z,3.41
2023-02-11T12:41:39.998Z,3.43
2023-02-11T12:44:11.406Z,3.41
2023-02-11T12:47:02.850Z,3.33
2023-02-11T12:49:43.010Z,3.31
2023-02-11T12:52:39.181Z,3.30
2023-02-11T12:55:20.749Z,3.19
2023-02-11T12:57:49.207Z,3.20
2023-02-11T13:00:22.920Z,3.19
2023-02-11T13:02:54.575Z,3.19
2023-02-11T13:05:49.721Z,3.24
2023-02-11T13:08:21.398Z,3.27
2023-02-11T13:10:54.106Z,3.25
2023-02-11T13:13:25.674Z,3.27
2023-02-11T13:16:09.489Z,3.29
2023-02-11T13:19:13.407Z,3.29
2023-02-11T13:22:05.978Z,3.30
2023-02-11T13:24:40.067Z,3.35
2023-02-11T13:27:28.991Z,3.32
2023-02-11T13:30:36.881Z,3.34
2023-02-11T13:33:06.825Z,3.35
2023-02-11T13:35:35.639Z,3.31
2023-02-11T13:38:16.448Z,3.24
2023-02-11T13:40:44.373Z,3.18
2023-02-11T13:43:21.796Z,3.14
2023-02-11T13:45:50.548Z,3.11
2023-02-11T13:48:27.187Z,3.10
2023-02-11T13:50:58.185Z,3.11
2023-02-11T13:53:27.912Z,3.09
2023-02-11T13:56:11.362Z,3.08
2023-02-11T13:58:49.567Z,3.09
2023-02-11T14:02:05.841Z,3.09
2023-02-11T14:04:53.384Z,3.05
2023-02-11T14:07:50.951Z,3.06
2023-02-11T14:10:41.114Z,3.09
2023-02-11T14:13:31.027Z,3.11
2023-02-11T14:16:36.863Z,3.15
2023-02-11T14:19:06.794Z,3.18
2023-02-11T14:21:38.784Z,3.16
2023-02-11T14:24:13.142Z,3.08
2023-02-11T14:26:47.048Z,3.01
2023-02-11T14:29:20.119Z,2.95
2023-02-11T14:31:51.512Z,2.91
2023-02-11T14:34:28.276Z,2.86
2023-02-11T14:37:14.161Z,2.80
2023-02-11T14:39:54.780Z,2.75
2023-02-11T14:42:26.917Z,2.66
2023-02-11T14:45:04.101Z,2.56
2023-02-11T14:47:58.692Z,2.50
2023-02-11T14:50:32.026Z,2.44
2023-02-11T14:53:01.164Z,2.37
2023-02-11T14:55:38.047Z,2.32
2023-02-11T14:58:29.655Z,2.29
2023-02-11T15:01:29.828Z,2.26
2023-02-11T15:04:00.548Z,2.19
2023-02-11T15:06:28.895Z,2.16
2023-02-11T15:09:01.016Z,2.13
2023-02-11T15:11:39.859Z,2.09
2023-02-11T15:14:18.870Z,2.08
2023-02-11T15:16:46.799Z,2.05
2023-02-11T15:19:34.674Z,2.04
2023-02-11T15:22:06.818Z,2.01
2023-02-11T15:24:35.589Z,2.00
2023-02-11T15:27:15.542Z,2.00
2023-02-11T15:29:45.365Z,1.98
2023-02-11T15:32:17.023Z,1.97
2023-02-11T15:34:45.869Z,1.96
2023-02-11T15:37:27.466Z,1.95
2023-02-11T15:39:56.027Z,1.94
2023-02-11T15:42:40.759Z,1.92
2023-02-11T15:45:15.395Z,1.87
2023-02-11T15:47:52.004Z,1.85
2023-02-11T15:50:31.257Z,1.83
2023-02-11T15:53:01.179Z,1.83
2023-02-11T15:55:29.192Z,1.83
2023-02-11T15:58:00.292Z,1.82
2023-02-11T16:00:34.585Z,1.79
2023-02-11T16:03:02.572Z,1.79
2023-02-11T16:05:35.757Z,1.79
2023-02-11T16:08:22.010Z,1.81
2023-02-11T16:11:08.665Z,1.81
2023-02-11T16:13:46.819Z,1.80
2023-02-11T16:16:25.653Z,1.81
2023-02-11T16:19:04.581Z,1.84
2023-02-11T16:21:39.007Z,1.87
2023-02-11T16:24:07.497Z,1.88
2023-02-11T16:26:41.041Z,1.90
2023-02-11T16:29:16.881Z,1.90
2023-02-11T16:31:46.888Z,1.91
2023-02-11T16:34:23.312Z,1.92
2023-02-11T16:36:52.146Z,1.92
2023-02-11T16:39:24.580Z,1.91
2023-02-11T16:41:52.752Z,1.92
2023-02-11T16:44:21.795Z,1.93
2023-02-11T16:46:51.980Z,1.92
2023-02-11T16:49:24.659Z,1.89
2023-02-11T16:51:54.022Z,1.88
2023-02-11T16:54:23.511Z,1.88
2023-02-11T16:56:51.368Z,1.87
2023-02-11T16:59:21.367Z,1.85
2023-02-11T17:01:49.668Z,1.85
2023-02-11T17:04:24.082Z,1.85
2023-02-11T17:06:55.996Z,1.85
2023-02-11T17:09:30.134Z,1.85
2023-02-11T17:12:01.785Z,1.83
2023-02-11T17:14:30.131Z,1.84
2023-02-11T17:16:58.250Z,1.84
2023-02-11T17:19:26.148Z,1.85
2023-02-11T17:21:54.265Z,1.85
2023-02-11T17:24:22.870Z,1.83
2023-02-11T17:26:50.882Z,1.82
2023-02-11T17:29:22.436Z,1.82
2023-02-11T17:31:52.007Z,1.83
2023-02-11T17:34:21.201Z,1.82
2023-02-11T17:36:49.384Z,1.79
2023-02-11T17:39:17.548Z,1.76
2023-02-11T17:41:46.648Z,1.74
2023-02-11T17:44:16.601Z,1.75
2023-02-11T17:46:45.142Z,1.77
2023-02-11T17:49:16.594Z,1.77
2023-02-11T17:51:50.107Z,1.78
2023-02-11T17:54:18.784Z,1.79
2023-02-11T17:56:49.286Z,1.79
2023-02-11T17:59:19.471Z,1.79
2023-02-11T18:01:47.472Z,1.79
2023-02-11T18:04:17.604Z,1.80
2023-02-11T18:06:45.542Z,1.81
2023-02-11T18:09:13.423Z,1.82
2023-02-11T18:11:41.292Z,1.81
2023-02-11T18:14:10.372Z,1.81
2023-02-11T18:16:43.113Z,1.82
2023-02-11T18:19:11.544Z,1.83
2023-02-11T18:21:39.551Z,1.83
2023-02-11T18:24:07.453Z,1.85
2023-02-11T18:26:35.498Z,1.87
2023-02-11T18:29:03.962Z,1.87
2023-02-11T18:31:31.986Z,1.89
2023-02-11T18:34:00.003Z,1.89
2023-02-11T18:36:28.385Z,1.90
2023-02-11T18:38:58.228Z,1.92
2023-02-11T18:41:29.846Z,1.96
2023-02-11T18:43:58.733Z,2.00
2023-02-11T18:46:26.769Z,2.03
2023-02-11T18:48:56.227Z,2.02
2023-02-11T18:51:24.608Z,2.00
2023-02-11T18:53:54.621Z,1.98
2023-02-11T18:56:23.673Z,1.97
2023-02-11T18:58:52.181Z,1.95
2023-02-11T19:01:24.210Z,1.95
2023-02-11T19:03:58.096Z,1.92
2023-02-11T19:06:27.429Z,1.91
2023-02-11T19:09:04.233Z,1.91
2023-02-11T19:11:49.937Z,1.89
2023-02-11T19:14:20.432Z,1.89
2023-02-11T19:16:50.771Z,1.87
2023-02-11T19:19:19.057Z,1.86
2023-02-11T19:21:48.945Z,1.86
2023-02-11T19:24:19.844Z,1.88
2023-02-11T19:26:48.565Z,1.90
2023-02-11T19:29:16.901Z,1.90
2023-02-11T19:31:45.131Z,1.89
2023-02-11T19:34:15.035Z,1.91
2023-02-11T19:36:43.302Z,1.92
2023-02-11T19:39:11.411Z,1.94
2023-02-11T19:41:39.570Z,1.96
2023-02-11T19:44:07.904Z,1.95
2023-02-11T19:46:37.571Z,1.92
2023-02-11T19:49:05.655Z,1.92
2023-02-11T19:51:37.462Z,1.91
2023-02-11T19:54:06.380Z,1.91
2023-02-11T19:56:34.356Z,1.92
2023-02-11T19:59:02.883Z,1.90
2023-02-11T20:01:31.060Z,1.87
2023-02-11T20:03:59.052Z,1.86
2023-02-11T20:06:28.679Z,1.85
2023-02-11T20:09:06.542Z,1.84
2023-02-11T20:11:34.861Z,1.81
2023-02-11T20:14:03.700Z,1.80
2023-02-11T20:16:46.900Z,1.81
2023-02-11T20:19:21.977Z,1.81
2023-02-11T20:21:53.781Z,1.79
2023-02-11T20:24:23.575Z,1.81
2023-02-11T20:26:55.959Z,1.82
2023-02-11T20:29:24.465Z,1.85
2023-02-11T20:31:52.917Z,1.86
2023-02-11T20:34:22.106Z,1.87
2023-02-11T20:36:53.535Z,1.86
2023-02-11T20:39:22.669Z,1.85
2023-02-11T20:41:51.422Z,1.83
2023-02-11T20:44:21.859Z,1.83
2023-02-11T20:46:50.240Z,1.85
2023-02-11T20:49:19.973Z,1.85
2023-02-11T20:51:49.373Z,1.83
2023-02-11T20:54:18.993Z,1.79
2023-02-11T20:56:51.257Z,1.78
2023-02-11T20:59:19.789Z,1.80
2023-02-11T21:01:53.485Z,1.79
2023-02-11T21:04:26.227Z,1.78
2023-02-11T21:06:56.082Z,1.75
2023-02-11T21:09:25.732Z,1.75
2023-02-11T21:11:57.037Z,1.74
2023-02-11T21:14:25.710Z,1.73
2023-02-11T21:16:53.592Z,1.72
2023-02-11T21:19:21.613Z,1.69
2023-02-11T21:21:49.938Z,1.69
2023-02-11T21:24:18.050Z,1.69
2023-02-11T21:26:48.981Z,1.69
2023-02-11T21:29:17.068Z,1.68
2023-02-11T21:31:45.098Z,1.67
2023-02-11T21:34:17.270Z,1.66
2023-02-11T21:36:45.459Z,1.65
2023-02-11T21:39:13.974Z,1.67
2023-02-11T21:41:41.862Z,1.67
2023-02-11T21:44:12.084Z,1.65
2023-02-11T21:46:40.336Z,1.61
2023-02-11T21:49:11.657Z,1.59
2023-02-11T21:51:39.666Z,1.59
2023-02-11T21:54:07.582Z,1.62
2023-02-11T21:56:36.652Z,1.65
2023-02-11T21:59:04.592Z,1.68
2023-02-11T22:01:33.253Z,1.66
2023-02-11T22:04:01.310Z,1.65
2023-02-11T22:06:31.428Z,1.64
2023-02-11T22:09:02.092Z,1.65
2023-02-11T22:11:32.719Z,1.66
2023-02-11T22:14:00.810Z,1.70
2023-02-11T22:16:30.715Z,1.72
2023-02-11T22:18:59.281Z,1.71
2023-02-11T22:21:28.059Z,1.71
2023-02-11T22:23:56.073Z,1.71
2023-02-11T22:26:26.502Z,1.69
2023-02-11T22:28:55.045Z,1.68
2023-02-11T22:31:28.478Z,1.65
2023-02-11T22:33:56.916Z,1.63
2023-02-11T22:36:29.743Z,1.62
2023-02-11T22:39:05.178Z,1.61
2023-02-11T22:41:33.399Z,1.59
2023-02-11T22:44:01.680Z,1.58
2023-02-11T22:46:29.865Z,1.56
2023-02-11T22:49:00.462Z,1.56
2023-02-11T22:51:29.380Z,1.57
2023-02-11T22:53:59.114Z,1.58
2023-02-11T22:56:27.825Z,1.57
2023-02-11T22:59:03.388Z,1.59
2023-02-11T23:01:31.759Z,1.62
2023-02-11T23:04:01.170Z,1.65
2023-02-11T23:06:29.237Z,1.65
2023-02-11T23:08:57.324Z,1.64
2023-02-11T23:11:29.139Z,1.63
2023-02-11T23:13:59.148Z,1.64
2023-02-11T23:16:29.141Z,1.65
2023-02-11T23:18:59.352Z,1.66
2023-02-11T23:21:29.470Z,1.68
2023-02-11T23:24:03.482Z,1.69
2023-02-11T23:28:12.458Z,1.75
2023-02-11T23:30:41.613Z,1.73
2023-02-11T23:33:09.793Z,1.75
2023-02-11T23:35:37.704Z,1.77
2023-02-11T23:38:05.694Z,1.79
2023-02-11T23:40:33.663Z,1.80
2023-02-11T23:43:01.646Z,1.81
2023-02-11T23:45:29.599Z,1.82
2023-02-11T23:47:57.498Z,1.82
2023-02-11T23:50:26.220Z,1.81
2023-02-11T23:52:54.206Z,1.79
2023-02-11T23:55:22.263Z,1.80
2023-02-11T23:57:50.234Z,1.81
